sensor_id;sensor_type;location;lat;lon;timestamp;pressure;altitude;pressure_sealevel;temperature
48894;BMP280;34710;35.798;139.446;2023-04-24T00:01:38;101435.94;;;15.72
48894;BMP280;34710;35.798;139.446;2023-04-24T00:04:04;101431.49;;;15.68
48894;BMP280;34710;35.798;139.446;2023-04-24T00:06:30;101428.74;;;15.07
48894;BMP280;34710;35.798;139.446;2023-04-24T00:08:55;101426.74;;;15.36
48894;BMP280;34710;35.798;139.446;2023-04-24T00:11:20;101423.77;;;15.49
48894;BMP280;34710;35.798;139.446;2023-04-24T00:13:45;101425.43;;;14.97
48894;BMP280;34710;35.798;139.446;2023-04-24T00:16:10;101423.64;;;16.18
48894;BMP280;34710;35.798;139.446;2023-04-24T00:18:35;101434.86;;;16.23
48894;BMP280;34710;35.798;139.446;2023-04-24T00:21:00;101441.48;;;14.69
48894;BMP280;34710;35.798;139.446;2023-04-24T00:23:26;101435.90;;;14.58
48894;BMP280;34710;35.798;139.446;2023-04-24T00:25:50;101423.79;;;15.65
48894;BMP280;34710;35.798;139.446;2023-04-24T00:28:16;101411.33;;;15.46
48894;BMP280;34710;35.798;139.446;2023-04-24T00:30:42;101400.80;;;15.77
48894;BMP280;34710;35.798;139.446;2023-04-24T00:33:07;101407.68;;;16.65
48894;BMP280;34710;35.798;139.446;2023-04-24T00:35:32;101407.19;;;16.65
48894;BMP280;34710;35.798;139.446;2023-04-24T00:37:57;101412.91;;;16.14
48894;BMP280;34710;35.798;139.446;2023-04-24T00:40:22;101417.75;;;17.41
48894;BMP280;34710;35.798;139.446;2023-04-24T00:42:47;101417.65;;;16.94
48894;BMP280;34710;35.798;139.446;2023-04-24T00:45:13;101420.49;;;17.22
48894;BMP280;34710;35.798;139.446;2023-04-24T00:47:38;101416.80;;;16.94
48894;BMP280;34710;35.798;139.446;2023-04-24T00:50:03;101412.41;;;17.06
48894;BMP280;34710;35.798;139.446;2023-04-24T00:52:28;101404.77;;;17.17
48894;BMP280;34710;35.798;139.446;2023-04-24T00:54:53;101403.80;;;17.61
48894;BMP280;34710;35.798;139.446;2023-04-24T00:57:18;101399.20;;;17.77
48894;BMP280;34710;35.798;139.446;2023-04-24T00:59:44;101406.32;;;18.25
48894;BMP280;34710;35.798;139.446;2023-04-24T01:02:10;101399.46;;;18.35
48894;BMP280;34710;35.798;139.446;2023-04-24T01:04:35;101403.62;;;17.93
48894;BMP280;34710;35.798;139.446;2023-04-24T01:07:02;101400.27;;;17.92
48894;BMP280;34710;35.798;139.446;2023-04-24T01:09:27;101390.47;;;17.55
48894;BMP280;34710;35.798;139.446;2023-04-24T01:11:51;101393.92;;;17.59
48894;BMP280;34710;35.798;139.446;2023-04-24T01:14:16;101388.75;;;17.41
48894;BMP280;34710;35.798;139.446;2023-04-24T01:16:42;101386.30;;;17.77
48894;BMP280;34710;35.798;139.446;2023-04-24T01:19:07;101386.21;;;18.03
48894;BMP280;34710;35.798;139.446;2023-04-24T01:21:36;101383.24;;;18.51
48894;BMP280;34710;35.798;139.446;2023-04-24T01:23:58;101375.81;;;18.10
48894;BMP280;34710;35.798;139.446;2023-04-24T01:26:23;101375.88;;;18.71
48894;BMP280;34710;35.798;139.446;2023-04-24T01:28:49;101372.08;;;18.42
48894;BMP280;34710;35.798;139.446;2023-04-24T01:31:13;101374.68;;;18.77
48894;BMP280;34710;35.798;139.446;2023-04-24T01:33:38;101369.35;;;18.98
48894;BMP280;34710;35.798;139.446;2023-04-24T01:36:04;101369.01;;;19.49
48894;BMP280;34710;35.798;139.446;2023-04-24T01:38:29;101369.01;;;19.47
48894;BMP280;34710;35.798;139.446;2023-04-24T01:40:54;101362.59;;;19.75
48894;BMP280;34710;35.798;139.446;2023-04-24T01:43:21;101357.17;;;20.18
48894;BMP280;34710;35.798;139.446;2023-04-24T01:45:46;101356.77;;;19.46
48894;BMP280;34710;35.798;139.446;2023-04-24T01:48:12;101352.50;;;20.02
48894;BMP280;34710;35.798;139.446;2023-04-24T01:50:35;101359.79;;;20.49
48894;BMP280;34710;35.798;139.446;2023-04-24T01:53:00;101355.02;;;19.12
48894;BMP280;34710;35.798;139.446;2023-04-24T01:55:25;101347.59;;;20.72
48894;BMP280;34710;35.798;139.446;2023-04-24T01:57:51;101339.80;;;20.64
48894;BMP280;34710;35.798;139.446;2023-04-24T02:00:16;101337.04;;;20.51
48894;BMP280;34710;35.798;139.446;2023-04-24T02:02:41;101333.11;;;20.43
48894;BMP280;34710;35.798;139.446;2023-04-24T02:05:08;101333.36;;;20.44
48894;BMP280;34710;35.798;139.446;2023-04-24T02:07:32;101334.06;;;20.63
48894;BMP280;34710;35.798;139.446;2023-04-24T02:09:58;101330.82;;;21.18
48894;BMP280;34710;35.798;139.446;2023-04-24T02:12:23;101327.87;;;20.90
48894;BMP280;34710;35.798;139.446;2023-04-24T02:14:48;101328.16;;;20.94
48894;BMP280;34710;35.798;139.446;2023-04-24T02:17:14;101318.32;;;20.42
48894;BMP280;34710;35.798;139.446;2023-04-24T02:19:39;101317.10;;;20.88
48894;BMP280;34710;35.798;139.446;2023-04-24T02:22:04;101314.47;;;21.03
48894;BMP280;34710;35.798;139.446;2023-04-24T02:24:29;101307.15;;;20.87
48894;BMP280;34710;35.798;139.446;2023-04-24T02:26:55;101294.13;;;20.75
48894;BMP280;34710;35.798;139.446;2023-04-24T02:29:19;101295.58;;;21.36
48894;BMP280;34710;35.798;139.446;2023-04-24T02:31:45;101293.79;;;20.87
48894;BMP280;34710;35.798;139.446;2023-04-24T02:34:10;101296.70;;;20.68
48894;BMP280;34710;35.798;139.446;2023-04-24T02:36:35;101298.58;;;20.16
48894;BMP280;34710;35.798;139.446;2023-04-24T02:39:00;101289.31;;;20.25
48894;BMP280;34710;35.798;139.446;2023-04-24T02:41:26;101283.52;;;19.15
48894;BMP280;34710;35.798;139.446;2023-04-24T02:43:51;101279.99;;;20.01
48894;BMP280;34710;35.798;139.446;2023-04-24T02:46:16;101280.76;;;20.55
48894;BMP280;34710;35.798;139.446;2023-04-24T02:48:41;101273.84;;;21.02
48894;BMP280;34710;35.798;139.446;2023-04-24T02:51:06;101265.80;;;20.26
48894;BMP280;34710;35.798;139.446;2023-04-24T02:53:32;101264.85;;;20.80
48894;BMP280;34710;35.798;139.446;2023-04-24T02:55:57;101256.01;;;20.70
48894;BMP280;34710;35.798;139.446;2023-04-24T02:58:22;101252.03;;;21.06
48894;BMP280;34710;35.798;139.446;2023-04-24T03:00:47;101244.14;;;21.10
48894;BMP280;34710;35.798;139.446;2023-04-24T03:03:13;101242.44;;;19.50
48894;BMP280;34710;35.798;139.446;2023-04-24T03:05:38;101252.56;;;20.69
48894;BMP280;34710;35.798;139.446;2023-04-24T03:08:03;101251.66;;;20.92
48894;BMP280;34710;35.798;139.446;2023-04-24T03:10:28;101245.51;;;20.96
48894;BMP280;34710;35.798;139.446;2023-04-24T03:12:54;101243.91;;;20.45
48894;BMP280;34710;35.798;139.446;2023-04-24T03:15:19;101245.42;;;21.07
48894;BMP280;34710;35.798;139.446;2023-04-24T03:17:45;101237.33;;;21.48
48894;BMP280;34710;35.798;139.446;2023-04-24T03:20:10;101231.80;;;20.70
48894;BMP280;34710;35.798;139.446;2023-04-24T03:22:35;101234.60;;;21.55
48894;BMP280;34710;35.798;139.446;2023-04-24T03:25:00;101231.72;;;21.01
48894;BMP280;34710;35.798;139.446;2023-04-24T03:27:26;101229.23;;;21.00
48894;BMP280;34710;35.798;139.446;2023-04-24T03:29:50;101221.51;;;20.95
48894;BMP280;34710;35.798;139.446;2023-04-24T03:32:16;101223.23;;;20.57
48894;BMP280;34710;35.798;139.446;2023-04-24T03:34:42;101220.95;;;20.32
48894;BMP280;34710;35.798;139.446;2023-04-24T03:37:06;101217.73;;;21.03
48894;BMP280;34710;35.798;139.446;2023-04-24T03:39:31;101214.61;;;20.73
48894;BMP280;34710;35.798;139.446;2023-04-24T03:41:57;101216.93;;;20.97
48894;BMP280;34710;35.798;139.446;2023-04-24T03:44:22;101219.25;;;20.99
48894;BMP280;34710;35.798;139.446;2023-04-24T03:46:47;101216.54;;;20.70
48894;BMP280;34710;35.798;139.446;2023-04-24T03:49:13;101213.46;;;21.13
48894;BMP280;34710;35.798;139.446;2023-04-24T03:51:38;101209.26;;;20.25
48894;BMP280;34710;35.798;139.446;2023-04-24T03:54:03;101203.68;;;21.17
48894;BMP280;34710;35.798;139.446;2023-04-24T03:56:29;101204.81;;;20.86
48894;BMP280;34710;35.798;139.446;2023-04-24T03:58:53;101202.83;;;21.11
48894;BMP280;34710;35.798;139.446;2023-04-24T04:01:19;101201.98;;;21.62
48894;BMP280;34710;35.798;139.446;2023-04-24T04:03:43;101198.55;;;21.79
48894;BMP280;34710;35.798;139.446;2023-04-24T04:06:09;101192.71;;;21.36
48894;BMP280;34710;35.798;139.446;2023-04-24T04:08:34;101193.85;;;20.75
48894;BMP280;34710;35.798;139.446;2023-04-24T04:11:00;101196.75;;;21.47
48894;BMP280;34710;35.798;139.446;2023-04-24T04:13:25;101188.04;;;19.41
48894;BMP280;34710;35.798;139.446;2023-04-24T04:15:50;101187.46;;;18.88
48894;BMP280;34710;35.798;139.446;2023-04-24T04:18:16;101186.54;;;18.01
48894;BMP280;34710;35.798;139.446;2023-04-24T04:20:41;101187.94;;;17.46
48894;BMP280;34710;35.798;139.446;2023-04-24T04:23:07;101182.73;;;18.19
48894;BMP280;34710;35.798;139.446;2023-04-24T04:25:32;101178.22;;;18.92
48894;BMP280;34710;35.798;139.446;2023-04-24T04:27:57;101171.22;;;19.36
48894;BMP280;34710;35.798;139.446;2023-04-24T04:30:23;101162.55;;;18.68
48894;BMP280;34710;35.798;139.446;2023-04-24T04:32:47;101160.38;;;18.44
48894;BMP280;34710;35.798;139.446;2023-04-24T04:35:12;101162.72;;;17.74
48894;BMP280;34710;35.798;139.446;2023-04-24T04:37:38;101164.73;;;18.32
48894;BMP280;34710;35.798;139.446;2023-04-24T04:40:05;101160.82;;;16.96
48894;BMP280;34710;35.798;139.446;2023-04-24T04:42:29;101158.24;;;18.02
48894;BMP280;34710;35.798;139.446;2023-04-24T04:44:54;101160.97;;;17.62
48894;BMP280;34710;35.798;139.446;2023-04-24T04:47:22;101164.40;;;17.63
48894;BMP280;34710;35.798;139.446;2023-04-24T04:49:45;101164.52;;;16.96
48894;BMP280;34710;35.798;139.446;2023-04-24T04:52:10;101158.94;;;15.61
48894;BMP280;34710;35.798;139.446;2023-04-24T04:54:34;101155.08;;;17.12
48894;BMP280;34710;35.798;139.446;2023-04-24T04:57:01;101157.90;;;16.33
48894;BMP280;34710;35.798;139.446;2023-04-24T04:59:26;101157.59;;;16.12
48894;BMP280;34710;35.798;139.446;2023-04-24T05:01:51;101157.84;;;16.84
48894;BMP280;34710;35.798;139.446;2023-04-24T05:04:16;101159.14;;;17.85
48894;BMP280;34710;35.798;139.446;2023-04-24T05:06:42;101161.48;;;14.41
48894;BMP280;34710;35.798;139.446;2023-04-24T05:09:08;101162.07;;;15.21
48894;BMP280;34710;35.798;139.446;2023-04-24T05:11:33;101155.90;;;14.59
48894;BMP280;34710;35.798;139.446;2023-04-24T05:13:58;101151.46;;;14.82
48894;BMP280;34710;35.798;139.446;2023-04-24T05:16:24;101150.45;;;14.67
48894;BMP280;34710;35.798;139.446;2023-04-24T05:18:50;101151.62;;;15.57
48894;BMP280;34710;35.798;139.446;2023-04-24T05:21:15;101152.11;;;16.48
48894;BMP280;34710;35.798;139.446;2023-04-24T05:23:40;101150.83;;;15.83
48894;BMP280;34710;35.798;139.446;2023-04-24T05:26:06;101148.86;;;16.46
48894;BMP280;34710;35.798;139.446;2023-04-24T05:28:32;101142.80;;;16.97
48894;BMP280;34710;35.798;139.446;2023-04-24T05:30:57;101139.36;;;17.03
48894;BMP280;34710;35.798;139.446;2023-04-24T05:33:23;101137.99;;;17.27
48894;BMP280;34710;35.798;139.446;2023-04-24T05:35:48;101136.29;;;17.61
48894;BMP280;34710;35.798;139.446;2023-04-24T05:38:13;101138.12;;;15.70
48894;BMP280;34710;35.798;139.446;2023-04-24T05:40:39;101136.97;;;15.74
48894;BMP280;34710;35.798;139.446;2023-04-24T05:43:04;101130.29;;;16.23
48894;BMP280;34710;35.798;139.446;2023-04-24T05:45:30;101121.35;;;16.07
48894;BMP280;34710;35.798;139.446;2023-04-24T05:47:55;101129.96;;;15.55
48894;BMP280;34710;35.798;139.446;2023-04-24T05:50:21;101127.39;;;14.69
48894;BMP280;34710;35.798;139.446;2023-04-24T05:52:46;101126.51;;;14.90
48894;BMP280;34710;35.798;139.446;2023-04-24T05:55:12;101125.92;;;15.64
48894;BMP280;34710;35.798;139.446;2023-04-24T05:57:38;101129.97;;;15.85
48894;BMP280;34710;35.798;139.446;2023-04-24T06:00:04;101122.58;;;15.68
48894;BMP280;34710;35.798;139.446;2023-04-24T06:02:29;101126.38;;;15.79
48894;BMP280;34710;35.798;139.446;2023-04-24T06:04:54;101125.37;;;15.95
48894;BMP280;34710;35.798;139.446;2023-04-24T06:07:19;101124.01;;;17.65
48894;BMP280;34710;35.798;139.446;2023-04-24T06:09:45;101122.18;;;17.26
48894;BMP280;34710;35.798;139.446;2023-04-24T06:12:10;101115.78;;;17.50
48894;BMP280;34710;35.798;139.446;2023-04-24T06:14:35;101117.91;;;17.56
48894;BMP280;34710;35.798;139.446;2023-04-24T06:17:01;101118.90;;;18.00
48894;BMP280;34710;35.798;139.446;2023-04-24T06:19:26;101116.33;;;18.05
48894;BMP280;34710;35.798;139.446;2023-04-24T06:21:52;101122.72;;;17.41
48894;BMP280;34710;35.798;139.446;2023-04-24T06:24:17;101123.70;;;17.28
48894;BMP280;34710;35.798;139.446;2023-04-24T06:26:43;101121.49;;;17.45
48894;BMP280;34710;35.798;139.446;2023-04-24T06:29:08;101115.03;;;17.97
48894;BMP280;34710;35.798;139.446;2023-04-24T06:31:32;101115.27;;;16.16
48894;BMP280;34710;35.798;139.446;2023-04-24T06:33:58;101117.67;;;17.20
48894;BMP280;34710;35.798;139.446;2023-04-24T06:36:24;101114.19;;;17.69
48894;BMP280;34710;35.798;139.446;2023-04-24T06:38:50;101114.40;;;17.29
48894;BMP280;34710;35.798;139.446;2023-04-24T06:41:16;101113.86;;;17.63
48894;BMP280;34710;35.798;139.446;2023-04-24T06:43:41;101116.17;;;16.73
48894;BMP280;34710;35.798;139.446;2023-04-24T06:46:06;101120.82;;;17.53
48894;BMP280;34710;35.798;139.446;2023-04-24T06:48:32;101119.67;;;17.37
48894;BMP280;34710;35.798;139.446;2023-04-24T06:50:57;101119.83;;;14.98
48894;BMP280;34710;35.798;139.446;2023-04-24T06:53:23;101125.57;;;16.06
48894;BMP280;34710;35.798;139.446;2023-04-24T06:55:48;101122.71;;;16.93
48894;BMP280;34710;35.798;139.446;2023-04-24T06:58:13;101121.86;;;17.44
48894;BMP280;34710;35.798;139.446;2023-04-24T07:00:39;101124.40;;;16.11
48894;BMP280;34710;35.798;139.446;2023-04-24T07:03:04;101125.74;;;17.42
48894;BMP280;34710;35.798;139.446;2023-04-24T07:05:29;101126.59;;;17.09
48894;BMP280;34710;35.798;139.446;2023-04-24T07:07:55;101130.31;;;15.66
48894;BMP280;34710;35.798;139.446;2023-04-24T07:10:20;101129.65;;;14.59
48894;BMP280;34710;35.798;139.446;2023-04-24T07:12:45;101132.05;;;13.81
48894;BMP280;34710;35.798;139.446;2023-04-24T07:15:10;101133.86;;;16.17
48894;BMP280;34710;35.798;139.446;2023-04-24T07:17:35;101132.13;;;16.84
48894;BMP280;34710;35.798;139.446;2023-04-24T07:20:00;101129.64;;;17.22
48894;BMP280;34710;35.798;139.446;2023-04-24T07:22:26;101135.03;;;16.66
48894;BMP280;34710;35.798;139.446;2023-04-24T07:24:51;101132.22;;;17.14
48894;BMP280;34710;35.798;139.446;2023-04-24T07:27:17;101131.88;;;15.92
48894;BMP280;34710;35.798;139.446;2023-04-24T07:29:43;101133.37;;;16.50
48894;BMP280;34710;35.798;139.446;2023-04-24T07:32:07;101127.23;;;16.86
48894;BMP280;34710;35.798;139.446;2023-04-24T07:34:33;101127.46;;;17.13
48894;BMP280;34710;35.798;139.446;2023-04-24T07:36:58;101141.50;;;17.29
48894;BMP280;34710;35.798;139.446;2023-04-24T07:39:23;101141.36;;;17.50
48894;BMP280;34710;35.798;139.446;2023-04-24T07:41:49;101144.95;;;16.31
48894;BMP280;34710;35.798;139.446;2023-04-24T07:44:14;101145.71;;;16.99
48894;BMP280;34710;35.798;139.446;2023-04-24T07:46:40;101150.39;;;14.94
48894;BMP280;34710;35.798;139.446;2023-04-24T07:49:05;101153.30;;;16.88
48894;BMP280;34710;35.798;139.446;2023-04-24T07:51:30;101148.21;;;16.75
48894;BMP280;34710;35.798;139.446;2023-04-24T07:53:56;101149.63;;;16.81
48894;BMP280;34710;35.798;139.446;2023-04-24T07:56:21;101152.26;;;16.02
48894;BMP280;34710;35.798;139.446;2023-04-24T07:58:47;101157.22;;;16.05
48894;BMP280;34710;35.798;139.446;2023-04-24T08:01:12;101155.11;;;17.56
48894;BMP280;34710;35.798;139.446;2023-04-24T08:03:38;101154.94;;;17.10
48894;BMP280;34710;35.798;139.446;2023-04-24T08:06:03;101158.72;;;16.52
48894;BMP280;34710;35.798;139.446;2023-04-24T08:08:29;101160.63;;;16.22
48894;BMP280;34710;35.798;139.446;2023-04-24T08:10:53;101158.88;;;16.42
48894;BMP280;34710;35.798;139.446;2023-04-24T08:13:19;101159.29;;;16.75
48894;BMP280;34710;35.798;139.446;2023-04-24T08:15:44;101162.45;;;16.16
48894;BMP280;34710;35.798;139.446;2023-04-24T08:18:09;101166.37;;;16.86
48894;BMP280;34710;35.798;139.446;2023-04-24T08:20:34;101169.74;;;16.49
48894;BMP280;34710;35.798;139.446;2023-04-24T08:23:00;101169.44;;;17.29
48894;BMP280;34710;35.798;139.446;2023-04-24T08:25:26;101175.36;;;16.70
48894;BMP280;34710;35.798;139.446;2023-04-24T08:27:51;101176.57;;;17.21
48894;BMP280;34710;35.798;139.446;2023-04-24T08:30:16;101179.78;;;16.71
48894;BMP280;34710;35.798;139.446;2023-04-24T08:32:43;101182.53;;;16.98
48894;BMP280;34710;35.798;139.446;2023-04-24T08:35:09;101181.59;;;16.76
48894;BMP280;34710;35.798;139.446;2023-04-24T08:37:33;101185.51;;;16.62
48894;BMP280;34710;35.798;139.446;2023-04-24T08:39:59;101185.65;;;16.92
48894;BMP280;34710;35.798;139.446;2023-04-24T08:42:24;101189.72;;;16.01
48894;BMP280;34710;35.798;139.446;2023-04-24T08:44:51;101191.89;;;16.85
48894;BMP280;34710;35.798;139.446;2023-04-24T08:47:16;101197.72;;;17.25
48894;BMP280;34710;35.798;139.446;2023-04-24T08:49:41;101198.13;;;16.50
48894;BMP280;34710;35.798;139.446;2023-04-24T08:52:06;101201.67;;;17.03
48894;BMP280;34710;35.798;139.446;2023-04-24T08:54:33;101202.80;;;16.62
48894;BMP280;34710;35.798;139.446;2023-04-24T08:57:01;101202.68;;;16.22
48894;BMP280;34710;35.798;139.446;2023-04-24T08:59:24;101201.06;;;16.01
48894;BMP280;34710;35.798;139.446;2023-04-24T09:01:49;101204.96;;;16.00
48894;BMP280;34710;35.798;139.446;2023-04-24T09:04:15;101203.07;;;15.82
48894;BMP280;34710;35.798;139.446;2023-04-24T09:06:39;101207.89;;;15.99
48894;BMP280;34710;35.798;139.446;2023-04-24T09:09:04;101211.12;;;15.53
48894;BMP280;34710;35.798;139.446;2023-04-24T09:11:31;101210.54;;;16.21
48894;BMP280;34710;35.798;139.446;2023-04-24T09:13:55;101206.02;;;15.35
48894;BMP280;34710;35.798;139.446;2023-04-24T09:16:21;101211.41;;;15.29
48894;BMP280;34710;35.798;139.446;2023-04-24T09:18:47;101212.72;;;15.52
48894;BMP280;34710;35.798;139.446;2023-04-24T09:21:12;101220.28;;;15.43
48894;BMP280;34710;35.798;139.446;2023-04-24T09:23:39;101225.18;;;15.85
48894;BMP280;34710;35.798;139.446;2023-04-24T09:26:04;101227.15;;;15.93
48894;BMP280;34710;35.798;139.446;2023-04-24T09:28:31;101224.52;;;16.26
48894;BMP280;34710;35.798;139.446;2023-04-24T09:31:04;101224.34;;;16.43
48894;BMP280;34710;35.798;139.446;2023-04-24T09:33:20;101224.76;;;16.64
48894;BMP280;34710;35.798;139.446;2023-04-24T09:35:50;101226.71;;;16.95
48894;BMP280;34710;35.798;139.446;2023-04-24T09:38:11;101224.49;;;17.00
48894;BMP280;34710;35.798;139.446;2023-04-24T09:40:36;101223.62;;;16.98
48894;BMP280;34710;35.798;139.446;2023-04-24T09:43:02;101229.03;;;17.20
48894;BMP280;34710;35.798;139.446;2023-04-24T09:47:53;101235.14;;;16.70
48894;BMP280;34710;35.798;139.446;2023-04-24T09:50:18;101239.01;;;16.47
48894;BMP280;34710;35.798;139.446;2023-04-24T09:52:44;101242.64;;;16.85
48894;BMP280;34710;35.798;139.446;2023-04-24T09:55:15;101244.31;;;15.77
48894;BMP280;34710;35.798;139.446;2023-04-24T09:57:34;101246.23;;;15.35
48894;BMP280;34710;35.798;139.446;2023-04-24T09:59:59;101252.20;;;14.94
48894;BMP280;34710;35.798;139.446;2023-04-24T10:02:25;101254.65;;;16.22
48894;BMP280;34710;35.798;139.446;2023-04-24T10:04:55;101253.28;;;16.36
48894;BMP280;34710;35.798;139.446;2023-04-24T10:07:17;101256.00;;;16.37
48894;BMP280;34710;35.798;139.446;2023-04-24T10:09:42;101256.06;;;14.92
48894;BMP280;34710;35.798;139.446;2023-04-24T10:12:07;101256.27;;;16.32
48894;BMP280;34710;35.798;139.446;2023-04-24T10:14:31;101255.31;;;16.72
48894;BMP280;34710;35.798;139.446;2023-04-24T10:16:57;101260.83;;;16.40
48894;BMP280;34710;35.798;139.446;2023-04-24T10:19:26;101267.56;;;16.32
48894;BMP280;34710;35.798;139.446;2023-04-24T10:21:48;101272.68;;;15.96
48894;BMP280;34710;35.798;139.446;2023-04-24T10:24:15;101273.92;;;15.60
48894;BMP280;34710;35.798;139.446;2023-04-24T10:26:41;101274.62;;;15.93
48894;BMP280;34710;35.798;139.446;2023-04-24T10:29:06;101281.39;;;14.40
48894;BMP280;34710;35.798;139.446;2023-04-24T10:31:33;101287.85;;;15.19
48894;BMP280;34710;35.798;139.446;2023-04-24T10:33:57;101292.33;;;15.87
48894;BMP280;34710;35.798;139.446;2023-04-24T10:36:24;101291.89;;;15.46
48894;BMP280;34710;35.798;139.446;2023-04-24T10:38:47;101296.40;;;15.59
48894;BMP280;34710;35.798;139.446;2023-04-24T10:41:13;101306.22;;;15.45
48894;BMP280;34710;35.798;139.446;2023-04-24T10:43:40;101320.39;;;15.30
48894;BMP280;34710;35.798;139.446;2023-04-24T10:46:05;101328.24;;;15.98
48894;BMP280;34710;35.798;139.446;2023-04-24T10:48:30;101329.83;;;15.67
48894;BMP280;34710;35.798;139.446;2023-04-24T10:50:55;101331.66;;;15.84
48894;BMP280;34710;35.798;139.446;2023-04-24T10:53:23;101336.86;;;15.61
48894;BMP280;34710;35.798;139.446;2023-04-24T10:55:49;101342.75;;;15.14
48894;BMP280;34710;35.798;139.446;2023-04-24T10:58:12;101348.61;;;13.86
48894;BMP280;34710;35.798;139.446;2023-04-24T11:00:39;101349.60;;;14.20
48894;BMP280;34710;35.798;139.446;2023-04-24T11:03:06;101341.75;;;15.44
48894;BMP280;34710;35.798;139.446;2023-04-24T11:10:26;101354.76;;;14.96
48894;BMP280;34710;35.798;139.446;2023-04-24T11:12:45;101356.64;;;14.51
48894;BMP280;34710;35.798;139.446;2023-04-24T11:15:11;101360.50;;;14.36
48894;BMP280;34710;35.798;139.446;2023-04-24T11:17:37;101369.59;;;14.22
48894;BMP280;34710;35.798;139.446;2023-04-24T11:20:06;101368.50;;;15.44
48894;BMP280;34710;35.798;139.446;2023-04-24T11:22:26;101370.80;;;15.72
48894;BMP280;34710;35.798;139.446;2023-04-24T11:24:55;101378.31;;;16.01
48894;BMP280;34710;35.798;139.446;2023-04-24T11:27:19;101381.57;;;15.81
48894;BMP280;34710;35.798;139.446;2023-04-24T11:29:46;101385.53;;;16.14
48894;BMP280;34710;35.798;139.446;2023-04-24T11:32:17;101391.61;;;16.08
48894;BMP280;34710;35.798;139.446;2023-04-24T11:34:34;101393.83;;;16.26
48894;BMP280;34710;35.798;139.446;2023-04-24T11:36:59;101399.04;;;16.03
48894;BMP280;34710;35.798;139.446;2023-04-24T11:39:24;101398.53;;;16.36
48894;BMP280;34710;35.798;139.446;2023-04-24T11:41:49;101401.57;;;15.91
48894;BMP280;34710;35.798;139.446;2023-04-24T11:44:16;101403.81;;;15.52
48894;BMP280;34710;35.798;139.446;2023-04-24T11:46:41;101407.14;;;15.84
48894;BMP280;34710;35.798;139.446;2023-04-24T11:49:07;101408.02;;;15.85
48894;BMP280;34710;35.798;139.446;2023-04-24T11:51:33;101406.02;;;15.83
48894;BMP280;34710;35.798;139.446;2023-04-24T11:53:59;101411.73;;;15.93
48894;BMP280;34710;35.798;139.446;2023-04-24T11:56:24;101416.08;;;15.97
48894;BMP280;34710;35.798;139.446;2023-04-24T11:58:52;101418.80;;;16.01
48894;BMP280;34710;35.798;139.446;2023-04-24T12:01:15;101415.26;;;16.01
48894;BMP280;34710;35.798;139.446;2023-04-24T12:03:41;101415.53;;;15.61
48894;BMP280;34710;35.798;139.446;2023-04-24T12:06:08;101415.83;;;15.96
48894;BMP280;34710;35.798;139.446;2023-04-24T12:08:32;101413.90;;;15.89
48894;BMP280;34710;35.798;139.446;2023-04-24T12:10:58;101413.48;;;15.67
48894;BMP280;34710;35.798;139.446;2023-04-24T12:13:22;101413.33;;;15.45
48894;BMP280;34710;35.798;139.446;2023-04-24T12:15:49;101419.39;;;15.49
48894;BMP280;34710;35.798;139.446;2023-04-24T12:18:14;101420.49;;;15.76
48894;BMP280;34710;35.798;139.446;2023-04-24T12:20:40;101419.83;;;16.24
48894;BMP280;34710;35.798;139.446;2023-04-24T12:23:05;101419.37;;;16.19
48894;BMP280;34710;35.798;139.446;2023-04-24T12:25:32;101422.56;;;16.33
48894;BMP280;34710;35.798;139.446;2023-04-24T12:30:26;101417.64;;;15.58
48894;BMP280;34710;35.798;139.446;2023-04-24T12:32:49;101427.19;;;15.73
48894;BMP280;34710;35.798;139.446;2023-04-24T12:35:12;101421.24;;;15.52
48894;BMP280;34710;35.798;139.446;2023-04-24T12:37:38;101419.89;;;16.17
48894;BMP280;34710;35.798;139.446;2023-04-24T12:40:06;101416.37;;;15.49
48894;BMP280;34710;35.798;139.446;2023-04-24T12:42:30;101417.24;;;15.92
48894;BMP280;34710;35.798;139.446;2023-04-24T12:44:58;101417.66;;;16.20
48894;BMP280;34710;35.798;139.446;2023-04-24T12:47:20;101414.89;;;15.85
48894;BMP280;34710;35.798;139.446;2023-04-24T12:49:45;101412.10;;;15.29
48894;BMP280;34710;35.798;139.446;2023-04-24T12:52:12;101412.83;;;15.65
48894;BMP280;34710;35.798;139.446;2023-04-24T12:54:38;101411.68;;;15.38
48894;BMP280;34710;35.798;139.446;2023-04-24T12:57:02;101415.23;;;15.40
48894;BMP280;34710;35.798;139.446;2023-04-24T12:59:29;101413.99;;;15.89
48894;BMP280;34710;35.798;139.446;2023-04-24T13:01:53;101415.47;;;15.64
48894;BMP280;34710;35.798;139.446;2023-04-24T13:04:19;101419.78;;;15.44
48894;BMP280;34710;35.798;139.446;2023-04-24T13:06:45;101419.79;;;15.46
48894;BMP280;34710;35.798;139.446;2023-04-24T13:09:11;101419.96;;;15.77
48894;BMP280;34710;35.798;139.446;2023-04-24T13:11:37;101419.88;;;15.33
48894;BMP280;34710;35.798;139.446;2023-04-24T13:14:02;101422.49;;;15.32
48894;BMP280;34710;35.798;139.446;2023-04-24T13:16:27;101414.70;;;15.71
48894;BMP280;34710;35.798;139.446;2023-04-24T13:18:53;101416.99;;;15.26
48894;BMP280;34710;35.798;139.446;2023-04-24T13:21:18;101414.04;;;15.14
48894;BMP280;34710;35.798;139.446;2023-04-24T13:23:45;101412.17;;;15.00
48894;BMP280;34710;35.798;139.446;2023-04-24T13:26:10;101413.08;;;15.13
48894;BMP280;34710;35.798;139.446;2023-04-24T13:28:36;101414.78;;;14.99
48894;BMP280;34710;35.798;139.446;2023-04-24T13:31:01;101416.00;;;15.19